Time;durP1;ratioP1;P1;durP2;ratioP2;P2;SDS_P1;SDS_P2;PMS_P1;PMS_P2;Temp;Humidity;BMP_temperature;BMP_pressure;BME280_temperature;BME280_humidity;BME280_pressure;Samples;Min_cycle;Max_cycle;Signal;HPM_P1;HPM_P2
2022/10/13 00:00:41;;;;;;;23.77;13.73;;;;;;;;;;5019513;28;97074;-81
2022/10/13 00:03:08;;;;;;;26.50;14.27;;;;;;;;;;5019948;28;94389;-79
2022/10/13 00:05:38;;;;;;;21.90;13.13;;;;;;;;;;5005081;28;92484;-80
2022/10/13 00:08:04;;;;;;;23.08;14.18;;;;;;;;;;4999166;28;93393;-80
2022/10/13 00:10:35;;;;;;;25.25;13.52;;;;;;;;;;5011406;28;92462;-81
2022/10/13 00:13:01;;;;;;;24.17;13.43;;;;;;;;;;5020012;28;93964;-81
2022/10/13 00:15:28;;;;;;;32.58;14.23;;;;;;;;;;5019854;28;93348;-81
2022/10/13 00:17:54;;;;;;;28.00;13.68;;;;;;;;;;5001528;28;92428;-81
2022/10/13 00:20:20;;;;;;;25.73;14.65;;;;;;;;;;4999620;28;93121;-81
2022/10/13 00:22:47;;;;;;;27.08;14.35;;;;;;;;;;4997186;28;96962;-81
2022/10/13 00:25:13;;;;;;;28.75;14.73;;;;;;;;;;4998832;28;92402;-81
2022/10/13 00:27:40;;;;;;;20.45;13.90;;;;;;;;;;5014575;28;93907;-81
2022/10/13 00:30:06;;;;;;;21.33;13.70;;;;;;;;;;5018954;28;92476;-81
2022/10/13 00:32:33;;;;;;;25.60;13.90;;;;;;;;;;5019960;28;94168;-80
2022/10/13 00:34:59;;;;;;;18.45;13.13;;;;;;;;;;5019785;28;93106;-81
2022/10/13 00:37:26;;;;;;;23.08;14.23;;;;;;;;;;5019174;28;92548;-81
2022/10/13 00:39:52;;;;;;;27.88;15.32;;;;;;;;;;5020437;28;92982;-81
2022/10/13 00:42:25;;;;;;;24.05;14.18;;;;;;;;;;5018976;28;92990;-81
2022/10/13 00:44:57;;;;;;;19.48;14.00;;;;;;;;;;5018907;28;92333;-81
2022/10/13 00:47:25;;;;;;;25.30;14.65;;;;;;;;;;5018077;28;94688;-81
2022/10/13 00:49:53;;;;;;;22.00;14.75;;;;;;;;;;5011203;28;95086;-81
2022/10/13 00:52:20;;;;;;;25.33;14.65;;;;;;;;;;4994726;28;94102;-80
2022/10/13 00:54:47;;;;;;;21.77;14.27;;;;;;;;;;4996437;28;93088;-81
2022/10/13 00:57:17;;;;;;;24.27;14.30;;;;;;;;;;4995506;28;93641;-81
2022/10/13 00:59:43;;;;;;;20.70;13.75;;;;;;;;;;4995710;28;92991;-80
2022/10/13 01:02:09;;;;;;;18.20;13.90;;;;;;;;;;4996614;28;94054;-81
2022/10/13 01:04:38;;;;;;;29.55;14.85;;;;;;;;;;4996697;28;91837;-81
2022/10/13 01:07:05;;;;;;;22.10;13.35;;;;;;;;;;4996005;28;93145;-81
2022/10/13 01:09:36;;;;;;;23.00;14.75;;;;;;;;;;4999448;28;94122;-81
2022/10/13 01:12:15;;;;;;;20.83;13.82;;;;;;;;;;4993495;28;94714;-81
2022/10/13 01:14:45;;;;;;;25.13;14.07;;;;;;;;;;4996049;28;95130;-81
2022/10/13 01:17:32;;;;;;;25.17;13.90;;;;;;;;;;4996368;28;92338;-80
2022/10/13 01:20:10;;;;;;;23.25;14.50;;;;;;;;;;4995910;28;94065;-80
2022/10/13 01:22:55;;;;;;;25.10;13.15;;;;;;;;;;4995402;28;93811;-80
2022/10/13 01:25:27;;;;;;;21.20;13.95;;;;;;;;;;4995079;28;92413;-80
2022/10/13 01:28:03;;;;;;;17.52;13.77;;;;;;;;;;4996181;28;93977;-81
2022/10/13 01:30:35;;;;;;;24.38;12.93;;;;;;;;;;4996354;28;93440;-81
2022/10/13 01:33:02;;;;;;;22.30;13.93;;;;;;;;;;4997838;28;92664;-81
2022/10/13 01:35:40;;;;;;;21.27;12.35;;;;;;;;;;5006925;28;93440;-81
2022/10/13 01:38:10;;;;;;;22.20;14.10;;;;;;;;;;5014032;28;94771;-80
2022/10/13 01:40:37;;;;;;;32.47;13.82;;;;;;;;;;5014853;28;96392;-80
2022/10/13 01:43:07;;;;;;;27.08;13.15;;;;;;;;;;5015286;28;94501;-80
2022/10/13 01:45:39;;;;;;;19.10;13.48;;;;;;;;;;4996239;28;92473;-80
2022/10/13 01:48:07;;;;;;;21.95;13.75;;;;;;;;;;4995255;28;94422;-80
2022/10/13 01:50:39;;;;;;;;;;;;;;;;;;4995922;28;93940;-80
2022/10/13 01:53:06;;;;;;;23.88;13.35;;;;;;;;;;4996050;28;120491;-81
2022/10/13 01:55:32;;;;;;;21.80;13.27;;;;;;;;;;4998949;28;94116;-80
2022/10/13 01:57:59;;;;;;;14.85;12.43;;;;;;;;;;4994839;28;92474;-81
2022/10/13 02:00:25;;;;;;;21.98;13.73;;;;;;;;;;4994651;28;94143;-80
2022/10/13 02:02:52;;;;;;;20.35;13.98;;;;;;;;;;4992456;28;95516;-80
2022/10/13 02:05:24;;;;;;;20.85;13.45;;;;;;;;;;4995189;28;92514;-80
2022/10/13 02:07:53;;;;;;;29.27;13.48;;;;;;;;;;4994604;28;94284;-80
2022/10/13 02:10:32;;;;;;;22.65;13.93;;;;;;;;;;4995454;28;94100;-80
2022/10/13 02:13:00;;;;;;;24.92;13.38;;;;;;;;;;4995128;28;92995;-81
2022/10/13 02:15:33;;;;;;;17.77;12.02;;;;;;;;;;4994064;28;94977;-80
2022/10/13 02:17:59;;;;;;;;;;;;;;;;;;4998338;28;93847;-81
2022/10/13 02:20:26;;;;;;;21.20;13.75;;;;;;;;;;4996881;28;122137;-80
2022/10/13 02:22:58;;;;;;;23.77;13.50;;;;;;;;;;4994064;28;94152;-80
2022/10/13 02:25:24;;;;;;;31.98;13.90;;;;;;;;;;4994826;28;92913;-81
2022/10/13 02:27:51;;;;;;;27.00;14.40;;;;;;;;;;4992645;28;94836;-80
2022/10/13 02:30:22;;;;;;;30.30;14.20;;;;;;;;;;4994682;28;94113;-80
2022/10/13 02:32:48;;;;;;;22.30;12.82;;;;;;;;;;4995037;28;92312;-81
2022/10/13 02:35:15;;;;;;;23.23;13.65;;;;;;;;;;4992798;28;94045;-80
2022/10/13 02:37:42;;;;;;;22.42;14.30;;;;;;;;;;4994582;28;94109;-80
2022/10/13 02:40:09;;;;;;;20.55;13.57;;;;;;;;;;4997700;28;92714;-80
2022/10/13 02:42:35;;;;;;;17.08;13.18;;;;;;;;;;4994605;28;94113;-81
2022/10/13 02:45:02;;;;;;;18.42;13.50;;;;;;;;;;4994481;28;91680;-80
2022/10/13 02:47:28;;;;;;;22.48;13.32;;;;;;;;;;4994480;28;92484;-80
2022/10/13 02:49:55;;;;;;;18.77;13.07;;;;;;;;;;4993906;28;93172;-81
2022/10/13 02:52:21;;;;;;;20.88;13.27;;;;;;;;;;4993151;28;95317;-79
2022/10/13 02:54:48;;;;;;;25.35;14.13;;;;;;;;;;4994786;28;96372;-80
2022/10/13 02:57:14;;;;;;;20.20;13.45;;;;;;;;;;4993475;28;94272;-81
2022/10/13 02:59:41;;;;;;;25.52;14.20;;;;;;;;;;5000065;28;92452;-81
2022/10/13 03:02:08;;;;;;;22.40;13.93;;;;;;;;;;5017136;28;92814;-80
2022/10/13 03:04:34;;;;;;;24.58;15.02;;;;;;;;;;5012940;28;92742;-81
2022/10/13 03:07:01;;;;;;;19.55;14.15;;;;;;;;;;5014202;28;94014;-80
2022/10/13 03:09:27;;;;;;;28.30;15.02;;;;;;;;;;5014397;28;92849;-80
2022/10/13 03:11:54;;;;;;;21.13;14.90;;;;;;;;;;5013612;28;92499;-81
2022/10/13 03:14:20;;;;;;;30.65;14.93;;;;;;;;;;5003476;28;94264;-80
2022/10/13 03:16:46;;;;;;;21.38;14.18;;;;;;;;;;4992719;28;96501;-81
2022/10/13 03:19:13;;;;;;;17.25;14.02;;;;;;;;;;4993169;28;92765;-80
2022/10/13 03:21:39;;;;;;;32.97;14.80;;;;;;;;;;4997177;28;94039;-80
2022/10/13 03:24:06;;;;;;;20.13;14.15;;;;;;;;;;4993509;28;92947;-81
2022/10/13 03:26:32;;;;;;;27.17;14.13;;;;;;;;;;4993744;28;94332;-80
2022/10/13 03:28:59;;;;;;;20.20;14.93;;;;;;;;;;4993737;28;94107;-81
2022/10/13 03:31:25;;;;;;;19.42;14.27;;;;;;;;;;4993557;28;92417;-82
2022/10/13 03:33:58;;;;;;;23.73;15.02;;;;;;;;;;4994626;28;94001;-80
2022/10/13 03:36:24;;;;;;;27.52;14.25;;;;;;;;;;4993984;28;93748;-80
2022/10/13 03:38:51;;;;;;;22.73;14.38;;;;;;;;;;4993470;28;92533;-80
2022/10/13 03:41:18;;;;;;;24.27;14.25;;;;;;;;;;4992039;28;94849;-80
2022/10/13 03:43:48;;;;;;;29.73;14.63;;;;;;;;;;4996720;28;94113;-81
2022/10/13 03:46:16;;;;;;;22.75;14.52;;;;;;;;;;4992350;28;94498;-79
2022/10/13 03:48:43;;;;;;;20.48;15.48;;;;;;;;;;4993772;28;93720;-80
2022/10/13 03:51:13;;;;;;;19.85;15.27;;;;;;;;;;5001363;28;92448;-80
2022/10/13 03:53:43;;;;;;;30.50;15.43;;;;;;;;;;5013248;28;93870;-80
2022/10/13 03:56:12;;;;;;;20.30;14.57;;;;;;;;;;5013317;28;94395;-79
2022/10/13 03:58:43;;;;;;;33.70;15.23;;;;;;;;;;5014257;28;91638;-79
2022/10/13 04:01:10;;;;;;;27.20;16.70;;;;;;;;;;5012797;28;93662;-79
2022/10/13 04:03:37;;;;;;;28.73;15.48;;;;;;;;;;5013502;28;93979;-81
2022/10/13 04:06:04;;;;;;;25.67;16.23;;;;;;;;;;5014992;28;94704;-81
2022/10/13 04:08:31;;;;;;;22.85;15.20;;;;;;;;;;5011991;28;94236;-81
2022/10/13 04:11:05;;;;;;;27.33;15.90;;;;;;;;;;5013332;28;92266;-81
2022/10/13 04:13:33;;;;;;;28.67;15.45;;;;;;;;;;5009181;28;94221;-81
2022/10/13 04:16:01;;;;;;;26.27;15.30;;;;;;;;;;4993307;28;94160;-79
2022/10/13 04:18:28;;;;;;;23.13;15.05;;;;;;;;;;4993565;28;92379;-81
2022/10/13 04:20:54;;;;;;;21.90;15.88;;;;;;;;;;4992188;28;94491;-79
2022/10/13 04:23:20;;;;;;;28.75;16.08;;;;;;;;;;4993620;28;93638;-80
2022/10/13 04:25:46;;;;;;;27.80;16.40;;;;;;;;;;5009040;28;92404;-79
2022/10/13 04:28:13;;;;;;;20.00;14.00;;;;;;;;;;5018573;28;93798;-81
2022/10/13 04:30:40;;;;;;;28.48;16.13;;;;;;;;;;5015212;28;94884;-80
2022/10/13 04:33:12;;;;;;;;;;;;;;;;;;5016763;28;96313;-79
2022/10/13 04:35:40;;;;;;;19.23;15.07;;;;;;;;;;5016853;28;124009;-79
2022/10/13 04:38:06;;;;;;;30.13;16.95;;;;;;;;;;5016557;28;92414;-80
2022/10/13 04:40:33;;;;;;;26.60;16.85;;;;;;;;;;5015226;28;93892;-81
2022/10/13 04:43:00;;;;;;;32.25;16.30;;;;;;;;;;5011738;28;94719;-80
2022/10/13 04:45:26;;;;;;;22.58;15.68;;;;;;;;;;4996484;28;92419;-81
2022/10/13 04:47:52;;;;;;;19.77;15.82;;;;;;;;;;4996041;28;92929;-80
2022/10/13 04:50:21;;;;;;;24.63;16.45;;;;;;;;;;4998451;28;94091;-80
2022/10/13 04:52:57;;;;;;;24.73;16.77;;;;;;;;;;4996006;28;94337;-79
2022/10/13 04:55:23;;;;;;;31.02;16.50;;;;;;;;;;4994612;28;96581;-79
2022/10/13 04:57:49;;;;;;;26.30;18.27;;;;;;;;;;4995872;28;92488;-79
2022/10/13 05:00:16;;;;;;;27.15;17.27;;;;;;;;;;5014358;28;93923;-82
2022/10/13 05:02:42;;;;;;;30.23;18.50;;;;;;;;;;4997630;28;94104;-79
2022/10/13 05:05:09;;;;;;;30.48;15.80;;;;;;;;;;4996197;28;92514;-79
2022/10/13 05:07:35;;;;;;;27.98;17.65;;;;;;;;;;4995603;28;94109;-78
2022/10/13 05:10:03;;;;;;;29.88;16.98;;;;;;;;;;4989474;28;94172;-79
2022/10/13 05:12:30;;;;;;;30.05;18.25;;;;;;;;;;4995793;28;91794;-79
2022/10/13 05:14:57;;;;;;;25.80;16.58;;;;;;;;;;4995316;28;93914;-79
2022/10/13 05:17:24;;;;;;;31.30;17.65;;;;;;;;;;4995036;28;92407;-79
2022/10/13 05:19:51;;;;;;;29.83;17.65;;;;;;;;;;4993589;28;94809;-79
2022/10/13 05:22:18;;;;;;;24.23;17.75;;;;;;;;;;4995307;28;93270;-79
2022/10/13 05:24:45;;;;;;;28.27;17.55;;;;;;;;;;4994363;28;92575;-79
2022/10/13 05:27:12;;;;;;;28.25;17.90;;;;;;;;;;4994014;28;94047;-79
2022/10/13 05:29:38;;;;;;;30.55;19.05;;;;;;;;;;4993596;28;94479;-79
2022/10/13 05:32:07;;;;;;;28.05;16.92;;;;;;;;;;4998112;28;92502;-79
2022/10/13 05:34:33;;;;;;;34.38;18.58;;;;;;;;;;4995550;28;94068;-79
2022/10/13 05:37:00;;;;;;;25.50;17.02;;;;;;;;;;4993298;28;91682;-79
2022/10/13 05:39:26;;;;;;;32.33;18.65;;;;;;;;;;4995384;28;92348;-79
2022/10/13 05:41:54;;;;;;;31.20;17.13;;;;;;;;;;4995527;28;94121;-80
2022/10/13 05:44:20;;;;;;;29.30;18.20;;;;;;;;;;4992308;28;94941;-80
2022/10/13 05:46:53;;;;;;;24.10;17.33;;;;;;;;;;4993846;28;96247;-79
2022/10/13 05:49:22;;;;;;;34.60;18.45;;;;;;;;;;4995626;28;93729;-80
2022/10/13 05:51:50;;;;;;;25.67;18.02;;;;;;;;;;4994858;28;92943;-80
2022/10/13 05:54:23;;;;;;;31.38;18.98;;;;;;;;;;4997234;28;92897;-81
2022/10/13 05:56:57;;;;;;;29.55;18.58;;;;;;;;;;4994354;28;92953;-80
2022/10/13 05:59:26;;;;;;;32.33;15.57;;;;;;;;;;4994079;28;93931;-81
2022/10/13 06:01:53;;;;;;;33.78;20.10;;;;;;;;;;4993784;28;93703;-81
2022/10/13 06:04:24;;;;;;;33.88;19.23;;;;;;;;;;4993905;28;92428;-80
2022/10/13 06:06:51;;;;;;;30.27;20.25;;;;;;;;;;4985058;28;93915;-79
2022/10/13 06:09:17;;;;;;;38.97;20.55;;;;;;;;;;4986043;28;96806;-78
2022/10/13 06:11:44;;;;;;;35.85;20.00;;;;;;;;;;4992795;28;92513;-77
2022/10/13 06:14:11;;;;;;;31.15;19.58;;;;;;;;;;4986020;28;94900;-77
2022/10/13 06:16:37;;;;;;;31.63;19.50;;;;;;;;;;4990572;28;94098;-80
2022/10/13 06:19:04;;;;;;;34.67;19.48;;;;;;;;;;4987555;28;94407;-78
2022/10/13 06:21:30;;;;;;;32.33;19.38;;;;;;;;;;4992843;28;94415;-78
2022/10/13 06:23:56;;;;;;;34.53;19.00;;;;;;;;;;4993845;28;92620;-79
2022/10/13 06:26:23;;;;;;;34.50;19.30;;;;;;;;;;4993146;28;94266;-79
2022/10/13 06:28:49;;;;;;;34.30;19.00;;;;;;;;;;4993749;28;94590;-79
2022/10/13 06:31:22;;;;;;;;;;;;;;;;;;4995258;28;92507;-79
2022/10/13 06:33:48;;;;;;;33.25;19.30;;;;;;;;;;4994389;28;124107;-79
2022/10/13 06:36:14;;;;;;;34.90;20.45;;;;;;;;;;4993900;28;93495;-79
2022/10/13 06:38:41;;;;;;;36.50;21.45;;;;;;;;;;4997819;28;92768;-78
2022/10/13 06:41:07;;;;;;;34.63;20.02;;;;;;;;;;5002453;28;94308;-78
2022/10/13 06:43:34;;;;;;;40.55;20.90;;;;;;;;;;5003691;28;92473;-80
2022/10/13 06:46:09;;;;;;;34.65;18.88;;;;;;;;;;4993286;28;95380;-81
2022/10/13 06:48:35;;;;;;;34.80;21.10;;;;;;;;;;4992651;28;94181;-79
2022/10/13 06:51:03;;;;;;;34.35;21.30;;;;;;;;;;4994713;28;91767;-79
2022/10/13 06:53:29;;;;;;;38.38;22.27;;;;;;;;;;4994680;28;93368;-79
2022/10/13 06:55:56;;;;;;;38.03;22.63;;;;;;;;;;4990294;28;94392;-78
2022/10/13 06:58:22;;;;;;;41.00;22.27;;;;;;;;;;4993769;28;94870;-80
2022/10/13 07:00:49;;;;;;;46.75;22.98;;;;;;;;;;4997017;28;96328;-79
2022/10/13 07:03:15;;;;;;;35.55;22.90;;;;;;;;;;4993637;28;92754;-81
2022/10/13 07:05:41;;;;;;;36.30;21.55;;;;;;;;;;4995065;28;93167;-78
2022/10/13 07:08:08;;;;;;;17.15;11.48;;;;;;;;;;4993756;28;94409;-77
2022/10/13 07:10:36;;;;;;;32.20;19.90;;;;;;;;;;4991514;28;93460;-78
2022/10/13 07:13:03;;;;;;;31.98;21.50;;;;;;;;;;4985007;28;95709;-78
2022/10/13 07:15:29;;;;;;;43.45;22.13;;;;;;;;;;4993374;28;93323;-76
2022/10/13 07:17:55;;;;;;;31.15;21.27;;;;;;;;;;4990033;28;93241;-77
2022/10/13 07:20:22;;;;;;;45.47;23.70;;;;;;;;;;4997037;28;92896;-77
2022/10/13 07:22:52;;;;;;;42.47;22.92;;;;;;;;;;4991379;28;94796;-76
2022/10/13 07:25:18;;;;;;;43.22;24.15;;;;;;;;;;4991754;28;96462;-76
2022/10/13 07:27:45;;;;;;;38.15;22.52;;;;;;;;;;4992510;28;94113;-76
2022/10/13 07:30:11;;;;;;;35.05;22.88;;;;;;;;;;4992043;28;92429;-76
2022/10/13 07:32:40;;;;;;;34.20;24.23;;;;;;;;;;4991494;28;92926;-77
2022/10/13 07:35:08;;;;;;;43.55;25.35;;;;;;;;;;4993513;28;94351;-77
2022/10/13 07:37:35;;;;;;;38.63;23.90;;;;;;;;;;4990719;28;92644;-76
2022/10/13 07:40:02;;;;;;;41.03;24.17;;;;;;;;;;4991801;28;93415;-76
2022/10/13 07:42:29;;;;;;;46.20;25.05;;;;;;;;;;4995826;28;94115;-79
2022/10/13 07:44:55;;;;;;;54.22;24.80;;;;;;;;;;4992226;28;93007;-81
2022/10/13 07:47:24;;;;;;;38.58;23.58;;;;;;;;;;4990907;28;97593;-78
2022/10/13 07:49:51;;;;;;;37.42;25.23;;;;;;;;;;4993470;28;93433;-79
2022/10/13 07:52:17;;;;;;;42.55;25.77;;;;;;;;;;4992664;28;94270;-79
2022/10/13 07:54:44;;;;;;;39.75;26.55;;;;;;;;;;4993582;28;94084;-79
2022/10/13 07:57:10;;;;;;;39.95;25.73;;;;;;;;;;4993289;28;92417;-81
2022/10/13 07:59:36;;;;;;;53.92;27.98;;;;;;;;;;4992951;28;94700;-79
2022/10/13 08:02:03;;;;;;;45.30;27.95;;;;;;;;;;4996870;28;94265;-81
2022/10/13 08:04:33;;;;;;;42.90;26.83;;;;;;;;;;5000451;28;91735;-78
2022/10/13 08:07:01;;;;;;;47.63;28.30;;;;;;;;;;4995540;28;94076;-78
2022/10/13 08:09:27;;;;;;;48.47;26.80;;;;;;;;;;4976760;28;92523;-81
2022/10/13 08:11:55;;;;;;;43.88;24.23;;;;;;;;;;4975643;28;94833;-79
2022/10/13 08:14:27;;;;;;;47.37;26.53;;;;;;;;;;4976252;28;94418;-79
2022/10/13 08:16:54;;;;;;;45.85;26.00;;;;;;;;;;4977234;28;92407;-79
2022/10/13 08:19:21;;;;;;;35.03;24.48;;;;;;;;;;4976756;28;94004;-80
2022/10/13 08:21:47;;;;;;;36.53;23.17;;;;;;;;;;4976314;28;94828;-78
2022/10/13 08:24:34;;;;;;;32.85;21.90;;;;;;;;;;4977275;28;92479;-80
2022/10/13 08:27:01;;;;;;;37.83;23.02;;;;;;;;;;4978519;28;94155;-79
2022/10/13 08:29:27;;;;;;;33.05;21.15;;;;;;;;;;4977323;28;91621;-79
2022/10/13 08:31:54;;;;;;;31.88;20.65;;;;;;;;;;4976856;28;93331;-81
2022/10/13 08:34:21;;;;;;;33.38;20.83;;;;;;;;;;4975671;28;94071;-79
2022/10/13 08:36:51;;;;;;;29.95;19.33;;;;;;;;;;4993770;28;95020;-79
2022/10/13 08:39:18;;;;;;;34.60;20.95;;;;;;;;;;4994842;28;96374;-79
2022/10/13 08:41:44;;;;;;;35.40;21.25;;;;;;;;;;4995753;28;94135;-79
2022/10/13 08:44:22;;;;;;;29.10;19.33;;;;;;;;;;4996187;28;93051;-79
2022/10/13 08:47:12;;;;;;;33.33;19.20;;;;;;;;;;4996186;28;94380;-79
2022/10/13 08:49:39;;;;;;;31.17;19.45;;;;;;;;;;4998523;28;93512;-78
2022/10/13 08:52:12;;;;;;;30.55;18.40;;;;;;;;;;4991790;28;94154;-79
2022/10/13 08:54:38;;;;;;;39.03;18.50;;;;;;;;;;4995892;28;92465;-79
2022/10/13 08:57:07;;;;;;;31.35;18.88;;;;;;;;;;4996177;28;92395;-79
2022/10/13 08:59:33;;;;;;;25.95;18.27;;;;;;;;;;4996086;28;92822;-79
2022/10/13 09:02:00;;;;;;;29.92;19.70;;;;;;;;;;4993409;28;96504;-81
2022/10/13 09:04:27;;;;;;;31.55;19.77;;;;;;;;;;4994638;28;92642;-88
2022/10/13 09:07:02;;;;;;;25.42;18.45;;;;;;;;;;4995851;28;94142;-85
2022/10/13 09:09:28;;;;;;;28.70;19.20;;;;;;;;;;4995415;28;94272;-86
2022/10/13 09:11:54;;;;;;;32.10;20.58;;;;;;;;;;4997530;28;92649;-88
2022/10/13 09:14:26;;;;;;;24.63;20.23;;;;;;;;;;4991768;28;93528;-85
2022/10/13 09:16:54;;;;;;;24.95;17.00;;;;;;;;;;4994401;28;92412;-86
2022/10/13 09:19:20;;;;;;;23.83;21.00;;;;;;;;;;4994776;28;93957;-86
2022/10/13 09:21:47;;;;;;;27.75;19.90;;;;;;;;;;4993433;28;94474;-86
2022/10/13 09:24:15;;;;;;;24.55;19.02;;;;;;;;;;4995355;28;92442;-87
2022/10/13 09:26:41;;;;;;;26.33;19.90;;;;;;;;;;4992868;28;96506;-87
2022/10/13 09:29:27;;;;;;;37.35;21.23;;;;;;;;;;4996632;28;94182;-87
2022/10/13 09:32:06;;;;;;;26.40;18.90;;;;;;;;;;4995640;28;92556;-87
2022/10/13 09:34:33;;;;;;;27.30;19.38;;;;;;;;;;4994621;28;93529;-86
2022/10/13 09:37:04;;;;;;;30.45;20.48;;;;;;;;;;4992012;28;94010;-82
2022/10/13 09:39:31;;;;;;;26.10;20.13;;;;;;;;;;4989629;28;93656;-82
2022/10/13 09:42:16;;;;;;;28.02;20.50;;;;;;;;;;4994117;28;94690;-82
2022/10/13 09:44:43;;;;;;;30.38;19.70;;;;;;;;;;4994798;28;91796;-82
2022/10/13 09:47:16;;;;;;;26.17;20.02;;;;;;;;;;4995623;28;93395;-82
2022/10/13 09:49:43;;;;;;;25.15;18.88;;;;;;;;;;4993611;28;94707;-82
2022/10/13 09:52:12;;;;;;;26.20;18.70;;;;;;;;;;4991078;28;95199;-83
2022/10/13 09:54:39;;;;;;;25.83;17.50;;;;;;;;;;4993313;28;96375;-84
2022/10/13 09:57:25;;;;;;;26.75;18.25;;;;;;;;;;4992719;28;92663;-84
2022/10/13 09:59:56;;;;;;;21.08;15.32;;;;;;;;;;4984037;28;93950;-85
2022/10/13 10:02:31;;;;;;;23.80;14.57;;;;;;;;;;4988783;28;93963;-84
2022/10/13 10:05:03;;;;;;;20.65;13.85;;;;;;;;;;4988116;28;94169;-84
2022/10/13 10:07:30;;;;;;;23.63;13.52;;;;;;;;;;4996675;28;93825;-79
2022/10/13 10:10:00;;;;;;;18.10;12.23;;;;;;;;;;5000898;28;93356;-78
2022/10/13 10:12:29;;;;;;;15.90;13.15;;;;;;;;;;4994054;28;92803;-80
2022/10/13 10:14:55;;;;;;;21.10;12.65;;;;;;;;;;4995373;28;93934;-81
2022/10/13 10:17:28;;;;;;;24.55;12.35;;;;;;;;;;4996641;28;96166;-81
2022/10/13 10:20:12;;;;;;;19.08;12.20;;;;;;;;;;4994084;28;96359;-81
2022/10/13 10:22:58;;;;;;;21.48;12.23;;;;;;;;;;4995043;28;94180;-81
2022/10/13 10:25:28;;;;;;;18.17;11.27;;;;;;;;;;4995122;28;92383;-81
2022/10/13 10:28:01;;;;;;;21.38;11.45;;;;;;;;;;4994078;28;94541;-81
2022/10/13 10:30:28;;;;;;;16.08;10.93;;;;;;;;;;4994581;28;94188;-81
2022/10/13 10:33:09;;;;;;;17.02;11.10;;;;;;;;;;4994392;28;93037;-81
2022/10/13 10:35:40;;;;;;;18.05;10.88;;;;;;;;;;4995743;28;93274;-81
2022/10/13 10:38:19;;;;;;;16.58;10.68;;;;;;;;;;4994720;28;94825;-81
2022/10/13 10:40:48;;;;;;;20.00;11.52;;;;;;;;;;4997346;28;93383;-80
2022/10/13 10:43:18;;;;;;;16.70;10.10;;;;;;;;;;4992842;28;96613;-80
2022/10/13 10:45:45;;;;;;;17.35;11.02;;;;;;;;;;4994784;28;92546;-80
2022/10/13 10:48:18;;;;;;;21.52;11.55;;;;;;;;;;4993766;28;94311;-80
2022/10/13 10:50:45;;;;;;;21.60;11.85;;;;;;;;;;4994680;28;94043;-80
2022/10/13 10:53:12;;;;;;;20.95;11.10;;;;;;;;;;4994237;28;92575;-83
2022/10/13 10:55:46;;;;;;;19.55;9.82;;;;;;;;;;4993976;28;94335;-80
2022/10/13 10:58:26;;;;;;;19.52;9.68;;;;;;;;;;4995153;28;94193;-80
2022/10/13 11:00:58;;;;;;;17.25;9.88;;;;;;;;;;4996036;28;91563;-80
2022/10/13 11:03:34;;;;;;;17.10;10.18;;;;;;;;;;4997885;28;93355;-81
2022/10/13 11:06:02;;;;;;;17.90;9.10;;;;;;;;;;4993852;28;92532;-82
2022/10/13 11:08:37;;;;;;;15.90;8.20;;;;;;;;;;5006567;28;95283;-81
2022/10/13 11:11:19;;;;;;;22.35;9.18;;;;;;;;;;5002645;28;94153;-81
2022/10/13 11:13:58;;;;;;;16.08;9.02;;;;;;;;;;4995640;28;92423;-81
2022/10/13 11:16:27;;;;;;;14.45;8.27;;;;;;;;;;4995030;28;94189;-81
2022/10/13 11:18:54;;;;;;;17.85;8.30;;;;;;;;;;4994999;28;94152;-80
2022/10/13 11:21:23;;;;;;;18.98;8.48;;;;;;;;;;4994880;28;92450;-82
2022/10/13 11:23:50;;;;;;;17.70;8.45;;;;;;;;;;4994378;28;94008;-80
2022/10/13 11:26:27;;;;;;;18.67;9.10;;;;;;;;;;4997710;28;93362;-80
2022/10/13 11:28:54;;;;;;;23.00;8.95;;;;;;;;;;4994938;28;93848;-80
2022/10/13 11:31:28;;;;;;;19.65;9.60;;;;;;;;;;4993333;28;94498;-80
2022/10/13 11:34:01;;;;;;;15.20;8.75;;;;;;;;;;4992550;28;95327;-80
2022/10/13 11:36:29;;;;;;;14.98;9.82;;;;;;;;;;4993898;28;96230;-80
2022/10/13 11:39:00;;;;;;;17.10;10.40;;;;;;;;;;4994636;28;94148;-81
2022/10/13 11:41:30;;;;;;;17.90;10.68;;;;;;;;;;4994244;28;92302;-80
2022/10/13 11:44:02;;;;;;;23.02;11.32;;;;;;;;;;4992865;28;94052;-80
2022/10/13 11:46:37;;;;;;;24.05;12.90;;;;;;;;;;4996986;28;94312;-82
2022/10/13 11:49:29;;;;;;;20.33;12.88;;;;;;;;;;4993454;28;94442;-80
2022/10/13 11:51:59;;;;;;;25.92;15.18;;;;;;;;;;4993431;28;93538;-82
2022/10/13 11:54:35;;;;;;;23.33;14.75;;;;;;;;;;4993960;28;92348;-81
2022/10/13 11:57:03;;;;;;;25.02;14.30;;;;;;;;;;4993680;28;94983;-80
2022/10/13 11:59:32;;;;;;;28.85;16.40;;;;;;;;;;4991129;28;96961;-80
2022/10/13 12:02:04;;;;;;;24.27;16.45;;;;;;;;;;4993146;28;92499;-79
2022/10/13 12:04:31;;;;;;;29.42;17.73;;;;;;;;;;4992985;28;94697;-80
2022/10/13 12:07:00;;;;;;;26.77;17.23;;;;;;;;;;4992326;28;94236;-80
2022/10/13 12:09:27;;;;;;;24.85;17.40;;;;;;;;;;4996593;28;92458;-80
2022/10/13 12:12:06;;;;;;;28.30;17.50;;;;;;;;;;4992764;28;94466;-83
2022/10/13 12:14:39;;;;;;;25.98;17.20;;;;;;;;;;4991328;28;93073;-80
2022/10/13 12:17:20;;;;;;;26.63;18.35;;;;;;;;;;4993891;28;93899;-82
2022/10/13 12:19:49;;;;;;;23.75;18.02;;;;;;;;;;4992954;28;94350;-81
2022/10/13 12:22:15;;;;;;;25.33;18.48;;;;;;;;;;4993281;28;92468;-80
2022/10/13 12:24:42;;;;;;;36.80;18.13;;;;;;;;;;4991884;28;94786;-82
2022/10/13 12:27:09;;;;;;;25.85;16.63;;;;;;;;;;4991857;28;93384;-82
2022/10/13 12:29:38;;;;;;;26.80;16.52;;;;;;;;;;4993652;28;92359;-82
2022/10/13 12:32:16;;;;;;;25.02;16.20;;;;;;;;;;4995744;28;93782;-82
2022/10/13 12:34:43;;;;;;;22.98;15.27;;;;;;;;;;4992821;28;92480;-80
2022/10/13 12:37:13;;;;;;;24.92;15.45;;;;;;;;;;4992866;28;93990;-82
2022/10/13 12:39:40;;;;;;;28.00;15.90;;;;;;;;;;4992312;28;94230;-81
2022/10/13 12:42:09;;;;;;;16.48;13.73;;;;;;;;;;4993280;28;91743;-82
2022/10/13 12:44:36;;;;;;;23.83;13.98;;;;;;;;;;4993422;28;93175;-82
2022/10/13 12:47:02;;;;;;;30.05;15.07;;;;;;;;;;4994107;28;94479;-81
2022/10/13 12:49:32;;;;;;;27.42;14.55;;;;;;;;;;4994325;28;95017;-82
2022/10/13 12:52:04;;;;;;;20.98;15.30;;;;;;;;;;4995888;28;96174;-82
2022/10/13 12:54:32;;;;;;;29.15;15.18;;;;;;;;;;4998727;28;94067;-82
2022/10/13 12:57:00;;;;;;;24.63;14.80;;;;;;;;;;4995943;28;93894;-81
2022/10/13 12:59:28;;;;;;;23.92;16.25;;;;;;;;;;4996165;28;93467;-82
2022/10/13 13:01:56;;;;;;;26.27;16.30;;;;;;;;;;4995798;28;92374;-83
2022/10/13 13:04:31;;;;;;;22.80;15.63;;;;;;;;;;4996431;28;93048;-80
2022/10/13 13:06:58;;;;;;;23.00;16.45;;;;;;;;;;4996391;28;93389;-80
2022/10/13 13:09:29;;;;;;;15.95;14.27;;;;;;;;;;4995424;28;92330;-82
2022/10/13 13:12:22;;;;;;;17.60;14.00;;;;;;;;;;4996233;28;93970;-80
2022/10/13 13:14:51;;;;;;;25.85;15.02;;;;;;;;;;4991761;28;96948;-81
2022/10/13 13:17:17;;;;;;;17.95;14.07;;;;;;;;;;4998917;28;92283;-81
2022/10/13 13:20:17;;;;;;;28.65;14.85;;;;;;;;;;4995556;28;94452;-80
2022/10/13 13:22:43;;;;;;;23.65;14.40;;;;;;;;;;4995056;28;92652;-82
2022/10/13 13:25:10;;;;;;;19.40;14.48;;;;;;;;;;4995748;28;94310;-82
2022/10/13 13:27:37;;;;;;;20.73;14.82;;;;;;;;;;4995500;28;94772;-83
2022/10/13 13:30:09;;;;;;;23.10;14.65;;;;;;;;;;4994908;28;92419;-82
2022/10/13 13:32:35;;;;;;;19.20;14.25;;;;;;;;;;4996428;28;94035;-83
2022/10/13 13:35:02;;;;;;;23.27;15.20;;;;;;;;;;4995395;28;94749;-79
2022/10/13 13:37:30;;;;;;;25.02;16.10;;;;;;;;;;4995119;28;92742;-80
2022/10/13 13:39:57;;;;;;;21.60;15.20;;;;;;;;;;4996911;28;94911;-83
2022/10/13 13:42:25;;;;;;;19.75;14.40;;;;;;;;;;4995729;28;92943;-81
2022/10/13 13:44:52;;;;;;;24.35;14.52;;;;;;;;;;4993626;28;93168;-83
2022/10/13 13:47:22;;;;;;;21.27;14.27;;;;;;;;;;4995241;28;94419;-82
2022/10/13 13:49:49;;;;;;;21.38;14.93;;;;;;;;;;4995776;28;92695;-83
2022/10/13 13:52:16;;;;;;;22.98;14.57;;;;;;;;;;4994298;28;94080;-80
2022/10/13 13:54:43;;;;;;;26.52;16.35;;;;;;;;;;4995456;28;94151;-80
2022/10/13 13:57:10;;;;;;;25.95;14.77;;;;;;;;;;4994752;28;91669;-80
2022/10/13 13:59:37;;;;;;;23.35;15.02;;;;;;;;;;4997958;28;93169;-81
2022/10/13 14:02:04;;;;;;;24.35;15.60;;;;;;;;;;4995289;28;92449;-81
2022/10/13 14:04:32;;;;;;;21.92;15.68;;;;;;;;;;4993191;28;95056;-81
2022/10/13 14:06:58;;;;;;;27.55;15.20;;;;;;;;;;4994133;28;94057;-80
2022/10/13 14:09:24;;;;;;;27.10;15.63;;;;;;;;;;4995332;28;92364;-81
2022/10/13 14:11:51;;;;;;;18.85;15.57;;;;;;;;;;4994412;28;93093;-80
2022/10/13 14:14:17;;;;;;;21.20;14.95;;;;;;;;;;4993431;28;94090;-81
2022/10/13 14:16:43;;;;;;;20.05;14.48;;;;;;;;;;4995193;28;92496;-81
2022/10/13 14:19:10;;;;;;;23.80;15.63;;;;;;;;;;4993755;28;94854;-81
2022/10/13 14:21:36;;;;;;;22.67;15.77;;;;;;;;;;4998334;28;92866;-81
2022/10/13 14:24:08;;;;;;;20.85;16.33;;;;;;;;;;4994925;28;93537;-80
2022/10/13 14:26:35;;;;;;;28.17;16.15;;;;;;;;;;4993719;28;94612;-80
2022/10/13 14:29:01;;;;;;;24.65;15.18;;;;;;;;;;4993459;28;95846;-81